M I D A S
Marine Information and Data Acquisition System
Tripno 517 of the Zeeleeuw from 2003-06-17 06:38:05 to 2003-06-17 13:34:09
Back to CruiseResearch ActivitiesStationsMapUnderway DataData graphs

EquipmentUnitsComments
TimeDGPSUTC
LatitudeDGPSDM.mWGS84
LongitudeDGPSDM.mWGS84
SpeedMeteo Stationm/sRelative wind speed
DirectionMeteo StationdegRelative wind direction
TemperatureMeteo Stationdeg CelciusAir temperature
PressureMeteo StationPaAtmospheric pressure
HumidityMeteo Station%Relative humidity
Missing or incorrect values are displayed as -999
Metereological data collected by the RV Zeeleeuw from 2003-06-17 06:38:05 to 2003-06-17 13:34:09
Time Latitude Longitude Speed Direction Temperature Pressure Humidity
2003-06-17 06:39 51°13.61 2°56.09 4.7 5 20.2 101130 58
2003-06-17 06:40 51°13.61 2°56.09 4.3 10 20 101140 59
2003-06-17 06:41 51°13.61 2°56.07 4.3 18 20 101130 57
2003-06-17 06:42 51°13.62 2°56.01 2.3 41 19.9 101130 58
2003-06-17 06:43 51°13.64 2°55.91 2.3 13 19.9 101130 59
2003-06-17 06:44 51°13.68 2°55.82 1.7 3 20 101130 58
2003-06-17 06:45 51°13.7 2°55.77 4.2 34 20 101130 58
2003-06-17 06:46 51°13.71 2°55.78 4.1 93 19.9 101130 58
2003-06-17 06:47 51°13.71 2°55.77 3.5 126 19.9 101130 59
2003-06-17 06:48 51°13.69 2°55.75 5 129 20 101140 58
2003-06-17 06:49 51°13.73 2°55.72 2.5 131 20 101140 58
2003-06-17 06:50 51°13.81 2°55.65 2.3 97 20 101140 58
2003-06-17 06:51 51°13.92 2°55.56 1.6 105 20.1 101130 58
2003-06-17 06:52 51°14.03 2°55.48 4.3 106 20.2 101120 58
2003-06-17 06:53 51°14.16 2°55.39 4.6 111 20.2 101110 58
2003-06-17 06:54 51°14.27 2°55.25 3.2 105 20.2 101100 60
2003-06-17 06:55 51°14.36 2°55.03 1.2 97 20.2 101100 60
2003-06-17 06:56 51°14.42 2°54.76 1.4 338 20.1 101100 59
2003-06-17 06:57 51°14.43 2°54.45 3 318 20.1 101110 60
2003-06-17 06:58 51°14.37 2°54.14 6 304 20.2 101110 61
2003-06-17 06:59 51°14.25 2°53.84 7.2 317 20.2 101110 58
2003-06-17 07:00 51°14.13 2°53.54 7.3 340 20.2 101110 58
2003-06-17 07:01 51°13.99 2°53.23 8.2 316 20.3 101100 57
2003-06-17 07:02 51°13.86 2°52.91 8.8 228 20.3 101100 57
2003-06-17 07:03 51°13.72 2°52.58 7.6 331 20.3 101100 58
2003-06-17 07:04 51°13.58 2°52.24 8.2 42 20.3 101100 58
2003-06-17 07:05 51°13.44 2°51.91 7.8 322 20.2 101100 58
2003-06-17 07:06 51°13.3 2°51.58 8.4 320 20.1 101090 58
2003-06-17 07:07 51°13.16 2°51.25 8.4 311 20 101100 59
2003-06-17 07:08 51°13.04 2°50.9 8.2 315 20 101100 60
2003-06-17 07:09 51°12.92 2°50.55 7.5 44 19.9 101090 60
2003-06-17 07:10 51°12.8 2°50.2 8.4 317 19.8 101090 63
2003-06-17 07:11 51°12.68 2°49.85 9 318 19.7 101090 62
2003-06-17 07:12 51°12.56 2°49.5 7.6 318 19.6 101090 62
2003-06-17 07:13 51°12.44 2°49.15 8.2 318 19.6 101100 63
2003-06-17 07:14 51°12.32 2°48.8 8.3 320 19.6 101100 63
2003-06-17 07:15 51°12.2 2°48.45 8.6 327 19.5 101100 64
2003-06-17 07:16 51°12.08 2°48.1 9.1 332 19.5 101120 64
2003-06-17 07:17 51°11.96 2°47.75 9.1 332 19.5 101120 64
2003-06-17 07:18 51°11.86 2°47.39 9 320 19.5 101120 64
2003-06-17 07:19 51°11.76 2°47.02 9.4 327 19.4 101120 64
2003-06-17 07:20 51°11.66 2°46.66 8.9 325 19.4 101120 64
2003-06-17 07:21 51°11.56 2°46.29 8.6 327 19.3 101120 65
2003-06-17 07:22 51°11.46 2°45.92 7.9 328 19.3 101120 66
2003-06-17 07:23 51°11.36 2°45.56 7.9 333 19.2 101130 67
2003-06-17 07:24 51°11.26 2°45.19 8.3 337 19.2 101130 68
2003-06-17 07:25 51°11.16 2°44.83 8.4 335 19.2 101130 67
2003-06-17 07:26 51°11.06 2°44.46 8.4 335 19.2 101140 67
2003-06-17 07:27 51°10.96 2°44.1 9 338 19.2 101140 67
2003-06-17 07:28 51°10.87 2°43.74 9.7 337 19.2 101140 67
2003-06-17 07:29 51°10.77 2°43.37 8.7 340 19.1 101140 67
2003-06-17 07:30 51°10.68 2°43.01 8.9 340 19.1 101150 67
2003-06-17 07:31 51°10.58 2°42.66 8.2 348 19.1 101160 66
2003-06-17 07:32 51°10.49 2°42.3 8 345 19 101160 67
2003-06-17 07:33 51°10.4 2°41.94 8.3 355 19 101160 68
2003-06-17 07:34 51°10.3 2°41.58 7.4 350 19 101150 67
2003-06-17 07:35 51°10.21 2°41.22 8.4 354 19 101150 67
2003-06-17 07:36 51°10.11 2°40.85 8.6 346 18.9 101150 67
2003-06-17 07:37 51°10.02 2°40.49 8.5 346 18.9 101160 68
2003-06-17 07:38 51°9.93 2°40.13 8.3 344 18.9 101150 68
2003-06-17 07:39 51°9.83 2°39.77 8.2 339 18.8 101160 68
2003-06-17 07:40 51°9.74 2°39.4 7.9 345 18.8 101150 69
2003-06-17 07:41 51°9.65 2°39.04 7.5 352 18.8 101150 69
2003-06-17 07:42 51°9.55 2°38.68 7.5 346 18.8 101150 69
2003-06-17 07:43 51°9.47 2°38.33 7.4 348 18.8 101150 70
2003-06-17 07:44 51°9.41 2°38.01 6.3 346 18.7 101150 69
2003-06-17 07:45 51°9.35 2°37.71 5.7 350 18.7 101160 70
2003-06-17 07:46 51°9.3 2°37.5 3.8 337 18.7 101170 70
2003-06-17 07:47 51°9.27 2°37.35 3.8 341 18.7 101170 70
2003-06-17 07:48 51°9.23 2°37.25 3.3 355 18.7 101170 70
2003-06-17 07:49 51°9.19 2°37.19 3 15 18.7 101170 70
2003-06-17 07:50 51°9.15 2°37.17 2.4 30 18.6 101170 71
2003-06-17 07:51 51°9.12 2°37.17 2.1 47 18.6 101170 71
2003-06-17 07:52 51°9.11 2°37.18 1.7 64 18.5 101160 72
2003-06-17 07:53 51°9.1 2°37.19 1.4 79 18.4 101160 72
2003-06-17 07:54 51°9.11 2°37.19 1.8 79 18.4 101160 73
2003-06-17 07:55 51°9.12 2°37.2 1.9 59 18.4 101160 72
2003-06-17 07:56 51°9.13 2°37.22 1.9 60 18.3 101160 72
2003-06-17 07:57 51°9.13 2°37.25 2 53 18.3 101160 72
2003-06-17 07:58 51°9.12 2°37.27 2.2 61 18.3 101160 71
2003-06-17 07:59 51°9.12 2°37.3 2 92 18.3 101160 72
2003-06-17 08:00 51°9.13 2°37.31 2 110 18.3 101170 72
2003-06-17 08:01 51°9.13 2°37.33 1.8 117 18.4 101170 73
2003-06-17 08:02 51°9.14 2°37.34 2.1 110 18.4 101170 72
2003-06-17 08:03 51°9.14 2°37.36 2.2 108 18.5 101170 72
2003-06-17 08:04 51°9.14 2°37.37 2 108 18.5 101180 72
2003-06-17 08:05 51°9.14 2°37.39 1.8 108 18.5 101180 73
2003-06-17 08:06 51°9.14 2°37.4 1.8 120 18.5 101180 73
2003-06-17 08:07 51°9.13 2°37.4 1.8 125 18.5 101180 72
2003-06-17 08:08 51°9.13 2°37.41 2.4 127 18.5 101180 72
2003-06-17 08:09 51°9.12 2°37.41 2.4 121 18.6 101180 73
2003-06-17 08:10 51°9.12 2°37.41 2.3 122 18.6 101180 73
2003-06-17 08:11 51°9.11 2°37.41 1.9 123 18.6 101180 73
2003-06-17 08:12 51°9.1 2°37.4 2.1 124 18.6 101180 73
2003-06-17 08:13 51°9.09 2°37.4 2 124 18.6 101180 73
2003-06-17 08:14 51°9.08 2°37.4 2 125 18.5 101180 73
2003-06-17 08:15 51°9.07 2°37.39 2 125 18.6 101180 74
2003-06-17 08:16 51°9.06 2°37.38 1.7 123 18.6 101180 74
2003-06-17 08:17 51°9.05 2°37.38 1.6 127 18.5 101170 74
2003-06-17 08:18 51°9.03 2°37.37 1.4 127 18.5 101170 74
2003-06-17 08:19 51°9.02 2°37.36 1.2 144 18.5 101170 74
2003-06-17 08:20 51°9.01 2°37.35 1.1 156 18.5 101170 74
2003-06-17 08:21 51°9 2°37.35 1 159 18.4 101160 74
2003-06-17 08:22 51°8.99 2°37.36 0.5 159 18.4 101160 74
2003-06-17 08:23 51°8.96 2°37.36 0.7 121 18.4 101160 74
2003-06-17 08:24 51°8.94 2°37.35 1.2 69 18.4 101160 73
2003-06-17 08:25 51°8.91 2°37.33 1 39 18.3 101160 73
2003-06-17 08:26 51°8.89 2°37.29 1.3 1 18.3 101160 73
2003-06-17 08:27 51°8.86 2°37.25 1.7 351 18.4 101160 73
2003-06-17 08:28 51°8.86 2°37.15 3.1 348 18.4 101160 74
2003-06-17 08:29 51°8.89 2°36.94 5.2 346 18.5 101160 74
2003-06-17 08:30 51°8.93 2°36.65 5.8 343 18.5 101150 75
2003-06-17 08:31 51°8.98 2°36.35 6.4 344 18.5 101150 73
2003-06-17 08:32 51°9 2°36.04 6.2 348 18.5 101150 73
2003-06-17 08:33 51°9.03 2°35.75 5.3 350 18.6 101150 74
2003-06-17 08:34 51°9.05 2°35.47 5.4 351 18.6 101150 74
2003-06-17 08:35 51°9.06 2°35.19 5.4 353 18.6 101150 74
2003-06-17 08:36 51°9.04 2°34.95 3.9 350 18.6 101150 75
2003-06-17 08:37 51°9.02 2°34.75 3.5 349 18.6 101150 75
2003-06-17 08:38 51°9 2°34.56 3.5 350 18.6 101150 75
2003-06-17 08:39 51°8.99 2°34.38 3.6 350 18.6 101150 75
2003-06-17 08:40 51°8.97 2°34.19 3.5 353 18.6 101150 75
2003-06-17 08:41 51°8.96 2°34 3.3 347 18.6 101150 75
2003-06-17 08:42 51°8.96 2°33.82 3.3 344 18.6 101150 74
2003-06-17 08:43 51°8.96 2°33.63 3.2 346 18.6 101150 74
2003-06-17 08:44 51°8.96 2°33.45 3.3 342 18.7 101150 75
2003-06-17 08:45 51°8.96 2°33.26 3.3 333 18.6 101150 75
2003-06-17 08:46 51°8.97 2°33.08 2.2 315 18.7 101150 74
2003-06-17 08:47 51°9.01 2°32.97 0.9 291 18.7 101160 74
2003-06-17 08:48 51°9.04 2°32.91 0.1 267 18.7 101160 74
2003-06-17 08:49 51°9.07 2°32.89 1.1 120 18.8 101150 75
2003-06-17 08:50 51°9.09 2°32.89 1.3 100 18.8 101150 73
2003-06-17 08:51 51°9.11 2°32.89 1.7 97 18.8 101150 73
2003-06-17 08:52 51°9.12 2°32.91 2 93 18.7 101150 74
2003-06-17 08:53 51°9.12 2°32.92 2.2 92 18.6 101150 74
2003-06-17 08:54 51°9.12 2°32.93 2.1 95 18.5 101150 75
2003-06-17 08:55 51°9.12 2°32.93 2.1 97 18.5 101150 75
2003-06-17 08:56 51°9.12 2°32.93 1.6 98 18.5 101140 76
2003-06-17 08:57 51°9.11 2°32.92 2 98 18.5 101140 76
2003-06-17 08:58 51°9.11 2°32.91 2.1 95 18.5 101140 76
2003-06-17 08:59 51°9.11 2°32.9 2.2 98 18.5 101140 76
2003-06-17 09:00 51°9.1 2°32.88 2.2 102 18.5 101130 77
2003-06-17 09:01 51°9.1 2°32.86 2.5 100 18.5 101130 77
2003-06-17 09:02 51°9.1 2°32.85 2.7 101 18.5 101120 77
2003-06-17 09:03 51°9.09 2°32.82 3 95 18.5 101120 77
2003-06-17 09:04 51°9.09 2°32.8 3.1 89 18.5 101110 77
2003-06-17 09:05 51°9.09 2°32.78 3.1 83 18.4 101100 77
2003-06-17 09:06 51°9.08 2°32.76 2.8 81 18.4 101100 78
2003-06-17 09:07 51°9.08 2°32.74 2.7 79 18.3 101100 78
2003-06-17 09:08 51°9.07 2°32.72 2.5 74 18.2 101100 78
2003-06-17 09:09 51°9.07 2°32.72 3.1 64 18.1 101110 78
2003-06-17 09:10 51°9.07 2°32.72 3.1 48 18.1 101110 78
2003-06-17 09:11 51°9.06 2°32.73 3.5 29 18 101100 78
2003-06-17 09:12 51°9.04 2°32.75 3.6 25 18.1 101110 77
2003-06-17 09:13 51°9.02 2°32.77 3.6 17 18.2 101110 77
2003-06-17 09:14 51°8.99 2°32.78 3.6 8 18.3 101110 76
2003-06-17 09:15 51°8.95 2°32.78 3.4 4 18.3 101120 76
2003-06-17 09:16 51°8.91 2°32.79 3.7 3 18.4 101120 76
2003-06-17 09:17 51°8.85 2°32.8 4.4 359 18.4 101120 75
2003-06-17 09:18 51°8.77 2°32.8 4.9 353 18.4 101130 76
2003-06-17 09:19 51°8.68 2°32.77 4.4 344 18.4 101130 75
2003-06-17 09:20 51°8.59 2°32.71 3.8 341 18.5 101130 76
2003-06-17 09:21 51°8.51 2°32.64 3.2 335 18.6 101140 76
2003-06-17 09:22 51°8.45 2°32.56 1.6 328 18.7 101140 77
2003-06-17 09:23 51°8.4 2°32.47 2.7 309 18.7 101140 76
2003-06-17 09:24 51°8.38 2°32.38 2 275 18.7 101140 76
2003-06-17 09:25 51°8.39 2°32.29 0.7 224 18.7 101140 76
2003-06-17 09:26 51°8.41 2°32.24 1.3 112 18.7 101140 76
2003-06-17 09:27 51°8.43 2°32.24 2.7 93 18.7 101140 75
2003-06-17 09:28 51°8.45 2°32.26 3.1 73 18.6 101130 75
2003-06-17 09:29 51°8.46 2°32.3 3.4 81 18.6 101130 76
2003-06-17 09:30 51°8.46 2°32.32 3.3 102 18.5 101130 77
2003-06-17 09:31 51°8.48 2°32.32 3.3 120 18.5 101130 77
2003-06-17 09:32 51°8.48 2°32.31 4 119 18.5 101140 77
2003-06-17 09:33 51°8.48 2°32.31 4.2 114 18.5 101140 77
2003-06-17 09:34 51°8.48 2°32.31 4.7 119 18.6 101140 77
2003-06-17 09:35 51°8.47 2°32.31 4.2 130 18.6 101150 76
2003-06-17 09:36 51°8.47 2°32.31 3.8 130 18.7 101150 77
2003-06-17 09:37 51°8.47 2°32.31 4.1 133 18.7 101150 77
2003-06-17 09:38 51°8.47 2°32.31 4.2 142 18.7 101160 77
2003-06-17 09:39 51°8.47 2°32.31 3.7 142 18.7 101160 77
2003-06-17 09:40 51°8.47 2°32.32 3.6 131 18.7 101160 77
2003-06-17 09:41 51°8.47 2°32.33 4.1 135 18.8 101160 78
2003-06-17 09:42 51°8.48 2°32.33 3.6 140 18.8 101160 77
2003-06-17 09:43 51°8.48 2°32.33 3.7 139 18.8 101170 77
2003-06-17 09:44 51°8.48 2°32.34 3.3 139 18.8 101170 77
2003-06-17 09:45 51°8.48 2°32.34 3.8 137 18.8 101170 77
2003-06-17 09:46 51°8.49 2°32.34 4 150 18.9 101170 77
2003-06-17 09:47 51°8.49 2°32.33 3.9 147 18.8 101180 77
2003-06-17 09:48 51°8.49 2°32.33 4 140 18.8 101180 78
2003-06-17 09:49 51°8.49 2°32.33 3.7 130 18.8 101170 78
2003-06-17 09:50 51°8.48 2°32.34 3.8 109 18.8 101170 78
2003-06-17 09:51 51°8.47 2°32.34 3.9 92 18.8 101170 78
2003-06-17 09:52 51°8.45 2°32.35 4.3 89 18.8 101160 78
2003-06-17 09:53 51°8.43 2°32.35 3.5 79 18.8 101160 78
2003-06-17 09:54 51°8.4 2°32.35 2.9 73 18.8 101160 77
2003-06-17 09:55 51°8.37 2°32.35 3.2 66 18.8 101160 77
2003-06-17 09:56 51°8.35 2°32.35 3 65 18.8 101160 77
2003-06-17 09:57 51°8.32 2°32.34 2.8 66 18.8 101160 77
2003-06-17 09:58 51°8.3 2°32.33 2.6 64 18.8 101160 77
2003-06-17 09:59 51°8.27 2°32.31 2.7 61 18.8 101170 78
2003-06-17 10:00 51°8.25 2°32.3 2.8 62 18.8 101170 78
2003-06-17 10:01 51°8.23 2°32.29 2.7 54 18.8 101170 77
2003-06-17 10:02 51°8.21 2°32.27 2.6 55 18.8 101170 78
2003-06-17 10:03 51°8.18 2°32.26 2.6 66 18.8 101170 78
2003-06-17 10:04 51°8.16 2°32.24 3.1 66 18.8 101170 78
2003-06-17 10:05 51°8.15 2°32.23 2.8 68 18.8 101170 78
2003-06-17 10:06 51°8.13 2°32.21 3.1 72 18.8 101160 78
2003-06-17 10:07 51°8.11 2°32.2 3.4 79 18.8 101170 78
2003-06-17 10:08 51°8.1 2°32.19 4.1 85 18.8 101170 78
2003-06-17 10:09 51°8.08 2°32.18 4 91 18.8 101160 78
2003-06-17 10:10 51°8.07 2°32.16 4.3 100 18.8 101170 79
2003-06-17 10:11 51°8.06 2°32.15 4.4 96 18.8 101170 78
2003-06-17 10:12 51°8.05 2°32.14 4.3 99 18.8 101170 78
2003-06-17 10:13 51°8.04 2°32.13 4.1 90 18.8 101160 78
2003-06-17 10:14 51°8.03 2°32.12 4.4 108 18.9 101160 78
2003-06-17 10:15 51°8.01 2°32.11 3.5 92 18.9 101160 78
2003-06-17 10:16 51°8 2°32.09 4.2 89 18.9 101160 78
2003-06-17 10:17 51°7.99 2°32.08 4 98 18.9 101160 79
2003-06-17 10:18 51°7.98 2°32.07 3.7 98 18.9 101160 79
2003-06-17 10:19 51°7.97 2°32.06 3.9 98 18.9 101160 79
2003-06-17 10:20 51°7.96 2°32.04 3.8 99 18.9 101160 78
2003-06-17 10:21 51°7.95 2°32.03 3.6 103 18.9 101160 78
2003-06-17 10:22 51°7.94 2°32.02 3.8 99 18.9 101160 78
2003-06-17 10:23 51°7.93 2°32.01 4.6 101 18.9 101160 79
2003-06-17 10:24 51°7.92 2°31.99 5.3 101 18.9 101160 79
2003-06-17 10:25 51°7.91 2°31.99 5.4 98 18.9 101160 79
2003-06-17 10:26 51°7.9 2°32 5.6 93 18.9 101170 79
2003-06-17 10:27 51°7.9 2°32.03 5.7 104 18.9 101170 79
2003-06-17 10:28 51°7.89 2°32.07 4.6 110 18.9 101170 79
2003-06-17 10:29 51°7.9 2°32.11 4.6 113 18.9 101170 79
2003-06-17 10:30 51°7.9 2°32.16 4.7 107 18.9 101170 78
2003-06-17 10:31 51°7.9 2°32.21 4.9 106 18.9 101170 79
2003-06-17 10:32 51°7.91 2°32.26 4.2 107 18.9 101170 78
2003-06-17 10:33 51°7.92 2°32.31 4 107 18.9 101170 78
2003-06-17 10:34 51°7.92 2°32.36 4.1 107 18.9 101160 78
2003-06-17 10:35 51°7.93 2°32.41 3.7 110 18.9 101160 78
2003-06-17 10:36 51°7.94 2°32.46 3.3 113 18.9 101160 78
2003-06-17 10:37 51°7.96 2°32.5 2.7 105 18.9 101160 78
2003-06-17 10:38 51°7.97 2°32.54 2.7 97 19 101160 78
2003-06-17 10:39 51°7.98 2°32.59 3.2 88 18.9 101150 78
2003-06-17 10:40 51°7.99 2°32.64 3.6 84 18.9 101150 79
2003-06-17 10:41 51°8 2°32.68 3.6 103 18.9 101150 79
2003-06-17 10:42 51°8.01 2°32.72 3.4 107 18.9 101150 80
2003-06-17 10:43 51°8.02 2°32.75 3.3 116 18.9 101150 80
2003-06-17 10:44 51°8.04 2°32.78 4.2 109 18.9 101150 80
2003-06-17 10:45 51°8.05 2°32.81 4.9 94 18.9 101150 81
2003-06-17 10:46 51°8.05 2°32.85 4.5 92 19 101150 81
2003-06-17 10:47 51°8.06 2°32.89 4.9 103 19 101150 81
2003-06-17 10:48 51°8.07 2°32.92 4.3 111 18.9 101150 81
2003-06-17 10:49 51°8.07 2°32.95 5.3 100 19 101150 81
2003-06-17 10:50 51°8.07 2°32.99 5.5 92 18.9 101150 80
2003-06-17 10:51 51°8.07 2°33.01 4.9 97 19 101150 80
2003-06-17 10:52 51°8.06 2°33.02 4.3 108 19 101150 80
2003-06-17 10:53 51°8.06 2°33.03 3.9 120 19.1 101150 80
2003-06-17 10:54 51°8.06 2°33.02 3.9 122 19.1 101150 79
2003-06-17 10:55 51°8.06 2°33.02 3.3 118 19.1 101150 79
2003-06-17 10:56 51°8.06 2°33.01 3.8 113 19.1 101140 79
2003-06-17 10:57 51°8.05 2°33 3.7 110 19.1 101140 79
2003-06-17 10:58 51°8.05 2°33 3.8 108 19.2 101140 79
2003-06-17 10:59 51°8.05 2°33 3.6 114 19.2 101140 79
2003-06-17 11:00 51°8.05 2°32.99 3.6 126 19.2 101140 79
2003-06-17 11:01 51°8.05 2°32.99 3.7 125 19.2 101140 80
2003-06-17 11:02 51°8.05 2°32.99 3.5 125 19.2 101150 79
2003-06-17 11:03 51°8.06 2°32.99 3.9 122 19.2 101150 79
2003-06-17 11:04 51°8.06 2°32.99 3.7 121 19.2 101140 80
2003-06-17 11:05 51°8.06 2°32.99 4 122 19.2 101150 80
2003-06-17 11:06 51°8.07 2°33 4.1 115 19.2 101150 80
2003-06-17 11:07 51°8.07 2°33.01 4 102 19.2 101150 80
2003-06-17 11:08 51°8.07 2°33.01 4.3 95 19.2 101140 80
2003-06-17 11:09 51°8.07 2°33.03 4 94 19.1 101140 80
2003-06-17 11:10 51°8.07 2°33.04 4.4 96 19.1 101140 81
2003-06-17 11:11 51°8.06 2°33.05 4.4 87 19.1 101140 80
2003-06-17 11:12 51°8.05 2°33.06 3.7 80 19.1 101140 80
2003-06-17 11:13 51°8.04 2°33.07 3.9 80 19.1 101140 80
2003-06-17 11:14 51°8.02 2°33.08 3.6 69 19 101150 80
2003-06-17 11:15 51°7.99 2°33.08 4.3 41 19.1 101160 80
2003-06-17 11:16 51°7.97 2°33.07 4.5 29 19 101160 81
2003-06-17 11:17 51°7.94 2°33.05 4.3 13 19 101160 81
2003-06-17 11:18 51°7.89 2°32.99 6.2 338 19 101160 81
2003-06-17 11:19 51°7.82 2°32.79 9.3 346 19.1 101140 81
2003-06-17 11:20 51°7.72 2°32.52 9.7 345 19 101140 81
2003-06-17 11:21 51°7.61 2°32.25 9.2 346 19 101130 81
2003-06-17 11:22 51°7.51 2°31.98 9.1 348 19 101120 81
2003-06-17 11:23 51°7.4 2°31.71 9.5 349 19 101130 81
2003-06-17 11:24 51°7.3 2°31.45 8.5 347 19 101130 81
2003-06-17 11:25 51°7.2 2°31.2 7.6 349 19 101130 81
2003-06-17 11:26 51°7.09 2°31.05 7.1 357 19 101130 81
2003-06-17 11:27 51°6.97 2°30.96 7.3 5 18.9 101140 81
2003-06-17 11:28 51°6.84 2°30.93 7.5 21 18.9 101140 81
2003-06-17 11:29 51°6.72 2°31.01 7.4 29 18.9 101140 81
2003-06-17 11:30 51°6.61 2°31.12 7.3 26 18.9 101140 81
2003-06-17 11:31 51°6.5 2°31.21 6.9 15 18.9 101130 82
2003-06-17 11:32 51°6.38 2°31.3 7.4 14 18.9 101130 82
2003-06-17 11:33 51°6.27 2°31.4 6.8 31 18.9 101130 82
2003-06-17 11:34 51°6.27 2°31.55 3.6 89 18.9 101130 82
2003-06-17 11:35 51°6.34 2°31.68 4 93 18.9 101150 82
2003-06-17 11:36 51°6.42 2°31.83 3.8 91 18.9 101160 82
2003-06-17 11:37 51°6.49 2°31.99 3.1 96 18.9 101160 82
2003-06-17 11:38 51°6.57 2°32.15 3.3 99 18.9 101170 82
2003-06-17 11:39 51°6.64 2°32.3 2.6 112 19 101170 82
2003-06-17 11:40 51°6.7 2°32.41 2.5 121 19 101160 82
2003-06-17 11:41 51°6.75 2°32.5 3.2 113 19 101150 82
2003-06-17 11:42 51°6.78 2°32.57 3.8 115 19 101150 82
2003-06-17 11:43 51°6.8 2°32.64 3.7 111 19 101150 82
2003-06-17 11:44 51°6.8 2°32.68 3.7 92 19 101130 82
2003-06-17 11:45 51°6.8 2°32.71 2.8 79 19 101120 82
2003-06-17 11:46 51°6.81 2°32.74 2.9 103 19.1 101120 82
2003-06-17 11:47 51°6.81 2°32.77 2.6 116 19.1 101130 82
2003-06-17 11:48 51°6.81 2°32.79 2.8 135 19.1 101130 82
2003-06-17 11:49 51°6.82 2°32.82 3.3 137 19.2 101130 82
2003-06-17 11:50 51°6.82 2°32.84 3.7 143 19.1 101130 81
2003-06-17 11:51 51°6.81 2°32.82 4.2 151 19.2 101120 80
2003-06-17 11:52 51°6.79 2°32.79 4.7 163 19.2 101110 79
2003-06-17 11:53 51°6.78 2°32.77 3.5 168 19.2 101110 77
2003-06-17 11:54 51°6.76 2°32.76 3.4 175 19.3 101120 77
2003-06-17 11:55 51°6.75 2°32.76 3.5 179 19.4 101120 77
2003-06-17 11:56 51°6.74 2°32.77 3.8 178 19.4 101120 76
2003-06-17 11:57 51°6.74 2°32.78 5.1 173 19.5 101120 75
2003-06-17 11:58 51°6.74 2°32.79 5.2 171 19.6 101120 75
2003-06-17 11:59 51°6.74 2°32.8 2.9 197 19.5 101110 75
2003-06-17 12:00 51°6.77 2°32.82 4 205 19.7 101110 75
2003-06-17 12:01 51°6.8 2°32.83 5.7 232 19.8 101110 73
2003-06-17 12:02 51°6.84 2°32.81 3.9 247 19.8 101120 73
2003-06-17 12:03 51°6.89 2°32.8 2.1 184 19.7 101110 73
2003-06-17 12:04 51°6.93 2°32.83 3.4 151 19.8 101110 74
2003-06-17 12:05 51°6.95 2°32.89 4.5 126 19.8 101100 74
2003-06-17 12:06 51°6.96 2°32.94 4.4 112 19.8 101100 74
2003-06-17 12:07 51°6.96 2°32.99 4.9 86 19.7 101090 75
2003-06-17 12:08 51°6.96 2°33.04 3.5 76 19.6 101090 75
2003-06-17 12:09 51°6.94 2°33.08 3.3 57 19.6 101090 76
2003-06-17 12:10 51°6.93 2°33.12 3.8 45 19.6 101080 77
2003-06-17 12:11 51°6.92 2°33.15 3.4 20 19.5 101080 77
2003-06-17 12:12 51°6.89 2°33.12 4.3 336 19.5 101080 78
2003-06-17 12:13 51°6.86 2°32.97 7.1 351 19.5 101070 77
2003-06-17 12:14 51°6.82 2°32.74 8.2 349 19.6 101060 77
2003-06-17 12:15 51°6.76 2°32.5 8.5 346 19.7 101060 77
2003-06-17 12:16 51°6.71 2°32.25 8.6 344 19.6 101060 76
2003-06-17 12:17 51°6.66 2°32.01 9.7 342 19.7 101060 76
2003-06-17 12:18 51°6.61 2°31.77 8.9 342 19.7 101060 76
2003-06-17 12:19 51°6.55 2°31.52 8.2 344 19.7 101060 76
2003-06-17 12:20 51°6.56 2°31.27 6.5 338 19.7 101060 76
2003-06-17 12:21 51°6.69 2°31.12 5.1 341 19.8 101070 76
2003-06-17 12:22 51°6.87 2°31.08 4.2 343 19.8 101070 76
2003-06-17 12:23 51°7.05 2°31.08 4.2 350 19.7 101070 76
2003-06-17 12:24 51°7.25 2°31.08 4.7 339 19.6 101070 77
2003-06-17 12:25 51°7.45 2°31.12 3.6 356 19.6 101070 77
2003-06-17 12:26 51°7.61 2°31.38 3.8 8 19.6 101070 77
2003-06-17 12:27 51°7.76 2°31.64 4.6 8 19.6 101070 77
2003-06-17 12:28 51°7.91 2°31.95 4.5 20 19.6 101070 77
2003-06-17 12:29 51°8.04 2°32.28 4.6 20 19.5 101070 77
2003-06-17 12:30 51°8.15 2°32.62 4.1 18 19.5 101070 78
2003-06-17 12:31 51°8.27 2°32.96 4.2 18 19.5 101070 78
2003-06-17 12:32 51°8.39 2°33.31 4.6 20 19.5 101070 78
2003-06-17 12:33 51°8.51 2°33.66 4.6 25 19.5 101070 79
2003-06-17 12:34 51°8.63 2°34 5.1 21 19.5 101060 78
2003-06-17 12:35 51°8.76 2°34.38 5.2 23 19.5 101070 78
2003-06-17 12:36 51°8.88 2°34.73 5.4 23 19.5 101060 78
2003-06-17 12:37 51°9 2°35.07 5.1 22 19.5 101060 78
2003-06-17 12:38 51°9.12 2°35.42 5 23 19.5 101060 78
2003-06-17 12:39 51°9.24 2°35.77 4.9 24 19.6 101050 78
2003-06-17 12:40 51°9.37 2°36.13 4.8 25 19.6 101060 78
2003-06-17 12:41 51°9.49 2°36.48 4.6 21 19.6 101060 78
2003-06-17 12:42 51°9.6 2°36.83 4.9 19 19.6 101060 78
2003-06-17 12:43 51°9.72 2°37.18 5.1 18 19.6 101060 79
2003-06-17 12:44 51°9.84 2°37.53 5 17 19.6 101060 79
2003-06-17 12:45 51°9.96 2°37.89 5.1 16 19.6 101060 79
2003-06-17 12:46 51°10.08 2°38.24 5.2 21 19.6 101050 78
2003-06-17 12:47 51°10.2 2°38.6 4.8 19 19.7 101060 78
2003-06-17 12:48 51°10.32 2°38.95 4.8 19 19.7 101060 78
2003-06-17 12:49 51°10.43 2°39.31 5.6 23 19.8 101060 78
2003-06-17 12:50 51°10.48 2°39.71 5.9 22 19.8 101050 78
2003-06-17 12:51 51°10.52 2°40.1 6.3 19 19.8 101060 78
2003-06-17 12:52 51°10.57 2°40.5 5.5 27 19.8 101060 78
2003-06-17 12:53 51°10.62 2°40.9 5.7 27 19.8 101060 78
2003-06-17 12:54 51°10.68 2°41.29 5 30 19.8 101060 78
2003-06-17 12:55 51°10.75 2°41.69 5.4 28 19.8 101060 77
2003-06-17 12:56 51°10.82 2°42.08 5.7 27 19.9 101060 77
2003-06-17 12:57 51°10.89 2°42.47 5.9 23 19.9 101060 77
2003-06-17 12:58 51°10.95 2°42.86 5.8 28 20 101060 77
2003-06-17 12:59 51°11.02 2°43.25 6.2 30 20 101060 76
2003-06-17 13:00 51°11.09 2°43.64 5.9 37 20 101060 75
2003-06-17 13:01 51°11.16 2°44.03 6.2 31 19.9 101060 75
2003-06-17 13:02 51°11.25 2°44.42 6.3 35 19.9 101060 76
2003-06-17 13:03 51°11.33 2°44.8 6.3 35 19.9 101050 75
2003-06-17 13:04 51°11.42 2°45.19 5.8 39 19.9 101060 73
2003-06-17 13:05 51°11.52 2°45.56 6 34 19.9 101060 72
2003-06-17 13:06 51°11.62 2°45.94 6.6 34 20 101060 74
2003-06-17 13:07 51°11.72 2°46.32 6.4 33 20 101060 74
2003-06-17 13:08 51°11.81 2°46.7 6 33 20.1 101060 74
2003-06-17 13:09 51°11.91 2°47.08 6.4 32 20.1 101060 73
2003-06-17 13:10 51°12.03 2°47.45 6.3 31 20.1 101060 74
2003-06-17 13:11 51°12.16 2°47.8 6.4 29 20.1 101060 74
2003-06-17 13:12 51°12.29 2°48.16 5.7 28 20.2 101060 74
2003-06-17 13:13 51°12.42 2°48.52 5.7 26 20.2 101060 73
2003-06-17 13:14 51°12.55 2°48.88 5.9 23 20.3 101060 73
2003-06-17 13:15 51°12.68 2°49.24 6.1 26 20.3 101060 72
2003-06-17 13:16 51°12.8 2°49.6 5.9 28 20.4 101060 73
2003-06-17 13:17 51°12.91 2°49.98 7.1 30 20.4 101060 72
2003-06-17 13:18 51°13.02 2°50.36 7.1 29 20.4 101060 73
2003-06-17 13:19 51°13.13 2°50.73 6.8 28 20.4 101060 73
2003-06-17 13:20 51°13.25 2°51.11 5.8 26 20.4 101070 72
2003-06-17 13:21 51°13.38 2°51.47 5.1 25 20.5 101070 71
2003-06-17 13:22 51°13.51 2°51.83 6.4 21 20.6 101070 72
2003-06-17 13:23 51°13.64 2°52.19 7.3 37 20.6 101070 72
2003-06-17 13:24 51°13.78 2°52.55 5.2 35 20.5 101080 71
2003-06-17 13:25 51°13.93 2°52.89 5.4 38 20.4 101080 71
2003-06-17 13:26 51°14.08 2°53.23 6.3 38 20.5 101080 71
2003-06-17 13:27 51°14.22 2°53.53 4.6 61 20.5 101080 71
2003-06-17 13:28 51°14.33 2°53.8 3 67 20.4 101080 70
2003-06-17 13:29 51°14.41 2°54.04 4.3 60 20.4 101080 69
2003-06-17 13:30 51°14.43 2°54.3 4.9 73 20.5 101080 70
2003-06-17 13:31 51°14.44 2°54.55 5.3 62 20.5 101080 70
2003-06-17 13:32 51°14.42 2°54.8 5.6 64 20.5 101080 70
2003-06-17 13:33 51°14.39 2°55 5.7 44 20.5 101070 70